Time;durP1;ratioP1;P1;durP2;ratioP2;P2;SDS_P1;SDS_P2;PMS_P1;PMS_P2;Temp;Humidity;BMP_temperature;BMP_pressure;BME280_temperature;BME280_humidity;BME280_pressure;Samples;Min_cycle;Max_cycle;Signal;HPM_P1;HPM_P2
2022/07/24 00:01:04;;;;;;;16.57;8.00;;;24.20;55.10;;;24.73;43.56;95045.19;5051732;28;20471;-60
2022/07/24 00:03:31;;;;;;;13.17;6.47;;;24.10;54.90;;;24.67;43.41;95053.09;5050942;28;20501;-58
2022/07/24 00:05:58;;;;;;;11.70;6.97;;;24.00;55.80;;;24.64;43.96;95063.47;5051737;28;20529;-58
2022/07/24 00:08:26;;;;;;;15.43;7.80;;;24.00;55.20;;;24.57;43.37;95052.81;5051547;28;20458;-59
2022/07/24 00:10:53;;;;;;;14.23;7.33;;;23.90;55.40;;;24.52;43.92;95050.75;5052083;28;20467;-60
2022/07/24 00:13:20;;;;;;;25.43;7.10;;;23.90;55.40;;;24.49;44.07;95050.34;5051927;28;20489;-61
2022/07/24 00:15:48;;;;;;;16.33;6.67;;;23.80;55.40;;;24.45;44.34;95049.97;5047643;28;20624;-60
2022/07/24 00:18:16;;;;;;;10.47;6.33;;;23.80;55.60;;;24.43;44.68;95057.47;5045998;28;20675;-58
2022/07/24 00:20:43;;;;;;;21.77;6.87;;;23.80;55.90;;;24.41;44.18;95058.72;5048683;28;20847;-60
2022/07/24 00:23:10;;;;;;;9.67;6.27;;;23.70;55.80;;;24.38;44.23;95051.09;5048239;28;20486;-61
2022/07/24 00:25:37;;;;;;;8.23;6.70;;;23.70;55.80;;;24.33;44.31;95047.19;5048437;28;20471;-60
2022/07/24 00:28:05;;;;;;;9.93;6.47;;;23.70;55.80;;;24.32;43.80;95050.94;5047704;28;20509;-60
2022/07/24 00:30:32;;;;;;;22.37;6.63;;;23.70;56.10;;;24.30;44.05;95047.63;5047856;28;20948;-60
2022/07/24 00:33:01;;;;;;;16.07;6.90;;;23.60;56.20;;;24.29;44.99;95050.53;5048619;28;20505;-61
2022/07/24 00:35:28;;;;;;;16.87;6.50;;;23.60;56.20;;;24.28;44.54;95048.91;5048044;28;20569;-57
2022/07/24 00:37:55;;;;;;;8.60;6.60;;;23.60;56.60;;;24.26;44.60;95045.63;5048129;28;20502;-60
2022/07/24 00:40:24;;;;;;;11.23;6.50;;;23.60;56.80;;;24.24;44.61;95055.78;5044262;28;20459;-59
2022/07/24 00:42:51;;;;;;;11.83;6.63;;;23.60;56.80;;;24.23;45.30;95052.28;5048277;28;20843;-61
2022/07/24 00:45:18;;;;;;;17.97;7.73;;;23.60;56.90;;;24.21;44.83;95051.66;5044386;28;20448;-58
2022/07/24 00:47:46;;;;;;;12.73;6.60;;;23.60;57.00;;;24.19;44.99;95056.44;5048378;28;21184;-58
2022/07/24 00:50:14;;;;;;;20.80;7.40;;;23.50;57.10;;;24.18;45.09;95057.47;5047901;28;20464;-59
2022/07/24 00:52:41;;;;;;;12.40;6.80;;;23.50;57.40;;;24.16;44.99;95051.50;5047819;28;20529;-60
2022/07/24 00:55:10;;;;;;;14.30;6.90;;;23.50;57.40;;;24.13;45.97;95060.81;5044538;28;20949;-60
2022/07/24 00:57:37;;;;;;;11.40;7.70;;;23.50;57.50;;;24.12;45.52;95061.88;5047150;28;20471;-60
2022/07/24 01:00:07;;;;;;;15.60;7.10;;;23.50;57.70;;;24.09;46.08;95059.63;5047446;28;20455;-58
2022/07/24 01:02:35;;;;;;;14.33;7.67;;;23.50;57.50;;;24.07;46.14;95050.94;5047805;28;20472;-58
2022/07/24 01:05:02;;;;;;;17.87;7.13;;;23.40;57.40;;;24.06;46.05;95059.22;5047609;28;20533;-61
2022/07/24 01:07:31;;;;;;;25.80;7.93;;;23.40;57.60;;;24.04;45.82;95055.94;5047849;28;20896;-60
2022/07/24 01:09:58;;;;;;;15.57;8.20;;;23.40;57.60;;;24.04;45.58;95056.75;5047429;28;20518;-61
2022/07/24 01:12:26;;;;;;;24.57;8.57;;;23.40;57.90;;;24.04;46.16;95053.25;5047289;28;20510;-58
2022/07/24 01:14:53;;;;;;;15.30;8.10;;;23.40;58.40;;;24.02;46.42;95040.03;5046930;28;20460;-60
2022/07/24 01:17:21;;;;;;;18.10;9.87;;;23.40;58.40;;;24.00;46.61;95044.81;5045633;28;20555;-60
2022/07/24 01:19:48;;;;;;;12.50;8.30;;;23.40;58.40;;;23.93;46.39;95042.16;5047393;28;20904;-60
2022/07/24 01:22:16;;;;;;;12.67;8.37;;;23.30;58.20;;;23.90;46.32;95042.59;5047595;28;20483;-61
2022/07/24 01:24:44;;;;;;;15.00;9.83;;;23.20;58.10;;;23.85;46.01;95042.44;5046849;28;20568;-61
2022/07/24 01:27:11;;;;;;;22.97;8.67;;;23.20;58.30;;;23.79;46.69;95051.34;5046811;28;20476;-57
2022/07/24 01:29:38;;;;;;;16.10;9.00;;;23.20;58.10;;;23.74;45.98;95045.81;5046769;28;20945;-61
2022/07/24 01:32:06;;;;;;;14.70;8.40;;;23.10;57.80;;;23.68;46.53;95044.00;5047390;28;20475;-58
2022/07/24 01:34:34;;;;;;;11.57;7.37;;;23.10;58.20;;;23.63;46.99;95048.16;5046529;28;20964;-61
2022/07/24 01:37:01;;;;;;;12.80;7.50;;;23.00;58.70;;;23.60;46.72;95043.22;5046931;28;20525;-60
2022/07/24 01:39:30;;;;;;;24.07;7.37;;;23.00;59.00;;;23.59;47.32;95043.44;5046563;28;20443;-60
2022/07/24 01:41:57;;;;;;;18.27;6.90;;;23.00;59.00;;;23.57;47.11;95049.00;5047352;28;20525;-60
2022/07/24 01:44:24;;;;;;;15.23;6.90;;;23.00;58.60;;;23.53;46.21;95031.72;5043020;28;20476;-60
2022/07/24 01:46:51;;;;;;;20.27;8.43;;;23.00;58.30;;;23.47;46.53;95029.88;5047065;28;20907;-60
2022/07/24 01:49:18;;;;;;;21.60;7.50;;;22.90;58.10;;;23.43;46.72;95025.97;5046666;28;20452;-58
2022/07/24 01:51:46;;;;;;;18.97;8.10;;;22.90;58.10;;;23.40;46.41;95026.41;5046888;28;20478;-59
2022/07/24 01:54:13;;;;;;;14.20;8.10;;;22.80;58.30;;;23.39;46.81;95024.75;5042872;28;20452;-61
2022/07/24 01:56:41;;;;;;;17.70;7.47;;;22.80;58.90;;;23.38;47.11;95020.44;5046431;28;20602;-60
2022/07/24 01:59:08;;;;;;;18.97;7.63;;;22.80;59.00;;;23.36;47.22;95020.66;5046660;28;20448;-58
2022/07/24 02:01:36;;;;;;;16.00;8.60;;;22.70;59.00;;;23.38;47.37;95031.19;5046235;28;20549;-58
2022/07/24 02:04:03;;;;;;;17.33;7.37;;;22.80;59.20;;;23.37;47.06;95026.84;5046588;28;20828;-61
2022/07/24 02:06:30;;;;;;;17.87;8.47;;;22.70;59.20;;;23.35;47.69;95023.56;5046355;28;20946;-59
2022/07/24 02:08:58;;;;;;;18.80;8.30;;;22.80;59.40;;;23.36;47.65;95028.72;5042597;28;20444;-60
2022/07/24 02:11:25;;;;;;;20.33;7.97;;;22.70;59.40;;;23.36;47.40;95027.88;5046516;28;20472;-61
2022/07/24 02:13:55;;;;;;;17.73;8.20;;;22.70;59.50;;;23.34;47.79;95032.66;5046416;28;20506;-57
2022/07/24 02:16:22;;;;;;;11.73;7.80;;;22.70;59.40;;;23.31;47.37;95025.84;5046155;28;20464;-58
2022/07/24 02:18:49;;;;;;;10.13;7.40;;;22.70;59.20;;;23.29;47.63;95024.44;5044391;28;20452;-57
2022/07/24 02:21:16;;;;;;;19.97;7.60;;;22.70;59.30;;;23.27;47.37;95027.31;5046111;28;20475;-58
2022/07/24 02:23:44;;;;;;;15.93;7.23;;;22.60;59.40;;;23.26;47.53;95031.03;5046321;28;20577;-60
2022/07/24 02:26:11;;;;;;;19.67;8.10;;;22.70;59.50;;;23.26;47.50;95033.72;5045663;28;20957;-60
2022/07/24 02:28:38;;;;;;;17.97;6.87;;;22.70;59.60;;;23.25;47.61;95032.91;5046523;28;20980;-60
2022/07/24 02:31:07;;;;;;;12.07;7.80;;;22.60;59.40;;;23.24;47.76;95033.94;5046272;28;20478;-58
2022/07/24 02:33:34;;;;;;;19.90;7.57;;;22.60;59.50;;;23.23;47.63;95026.09;5046062;28;20459;-60
2022/07/24 02:36:01;;;;;;;22.77;7.53;;;22.60;59.60;;;23.21;47.81;95029.00;5046154;28;20533;-58
2022/07/24 02:38:28;;;;;;;17.37;7.80;;;22.60;59.90;;;23.20;47.66;95027.34;5044888;28;20849;-60
2022/07/24 02:40:55;;;;;;;8.40;7.47;;;22.60;59.90;;;23.17;47.92;95033.13;5045627;28;20472;-60
2022/07/24 02:43:23;;;;;;;16.60;8.70;;;22.60;60.10;;;23.14;48.29;95030.88;5045860;28;20495;-60
2022/07/24 02:45:50;;;;;;;17.10;7.70;;;22.50;60.10;;;23.11;48.15;95028.63;5041831;28;20472;-58
2022/07/24 02:48:18;;;;;;;19.07;8.27;;;22.50;60.40;;;23.07;47.93;95038.13;5046208;28;20451;-57
2022/07/24 02:50:46;;;;;;;17.13;8.20;;;22.50;60.40;;;23.05;48.50;95034.81;5045395;28;20527;-60
2022/07/24 02:53:13;;;;;;;19.43;7.90;;;22.50;60.30;;;23.03;48.54;95028.84;5045825;28;20460;-58
2022/07/24 02:55:40;;;;;;;17.93;7.97;;;22.40;60.70;;;23.00;48.36;95031.97;5043223;28;20467;-59
2022/07/24 02:58:07;;;;;;;12.57;7.40;;;22.40;60.60;;;22.99;48.41;95035.66;5045509;28;20456;-57
2022/07/24 03:00:34;;;;;;;15.90;7.60;;;22.40;60.70;;;22.97;48.58;95037.75;5045589;28;20795;-57
2022/07/24 03:03:02;;;;;;;18.63;8.13;;;22.40;60.40;;;22.93;48.51;95029.31;5046125;28;20901;-59
2022/07/24 03:05:30;;;;;;;14.13;6.90;;;22.30;60.60;;;22.91;48.23;95034.03;5045682;28;20456;-61
2022/07/24 03:07:58;;;;;;;15.73;7.77;;;22.30;60.60;;;22.88;48.40;95029.94;5045467;28;20458;-59
2022/07/24 03:10:25;;;;;;;18.17;7.93;;;22.30;60.70;;;22.87;48.09;95033.66;5045693;28;20444;-59
2022/07/24 03:12:52;;;;;;;19.50;7.20;;;22.30;60.40;;;22.86;48.32;95033.88;5045715;28;20546;-58
2022/07/24 03:15:19;;;;;;;20.47;7.07;;;22.30;60.40;;;22.85;47.79;95040.25;5045992;28;20478;-61
2022/07/24 03:17:50;;;;;;;13.03;7.67;;;22.30;60.40;;;22.84;48.01;95044.81;5043428;28;20525;-58
2022/07/24 03:20:18;;;;;;;14.90;6.50;;;22.20;60.30;;;22.84;48.28;95044.00;5045522;28;20462;-58
2022/07/24 03:22:46;;;;;;;24.23;7.30;;;22.20;60.10;;;22.82;48.14;95033.47;5045698;28;20542;-58
2022/07/24 03:25:13;;;;;;;19.07;7.13;;;22.20;59.90;;;22.80;47.73;95026.69;5044976;28;20514;-60
2022/07/24 03:27:41;;;;;;;13.60;7.70;;;22.20;59.80;;;22.77;47.77;95027.91;5045513;28;20463;-56
2022/07/24 03:30:09;;;;;;;18.43;6.93;;;22.20;59.80;;;22.77;47.69;95027.91;5045549;28;20842;-60
2022/07/24 03:32:36;;;;;;;12.37;6.73;;;22.20;60.00;;;22.75;48.35;95030.00;5045389;28;20464;-59
2022/07/24 03:35:04;;;;;;;22.93;7.10;;;22.10;60.00;;;22.74;48.38;95039.06;5045185;28;20517;-57
2022/07/24 03:37:31;;;;;;;13.20;7.03;;;22.20;60.40;;;22.72;48.38;95043.81;5045605;28;20476;-60
2022/07/24 03:40:00;;;;;;;11.77;6.80;;;22.10;60.40;;;22.70;48.51;95041.34;5045083;28;20452;-60
2022/07/24 03:42:27;;;;;;;21.67;7.13;;;22.10;60.40;;;22.70;48.13;95027.13;5045228;28;20468;-60
2022/07/24 03:44:54;;;;;;;37.07;8.43;;;22.10;60.70;;;22.70;48.41;95032.50;5045299;28;20624;-62
2022/07/24 03:47:21;;;;;;;28.03;8.50;;;22.10;60.60;;;22.69;48.23;95030.84;5045355;28;21057;-57
2022/07/24 03:49:48;;;;;;;17.80;7.73;;;22.10;60.70;;;22.65;48.67;95034.97;5046089;28;20548;-60
2022/07/24 03:52:16;;;;;;;19.10;7.97;;;22.00;60.80;;;22.60;48.86;95037.47;5049038;28;20472;-56
2022/07/24 03:54:43;;;;;;;18.63;7.40;;;22.00;60.90;;;22.58;48.86;95035.00;5044769;28;20444;-57
2022/07/24 03:57:11;;;;;;;17.00;8.17;;;22.00;61.30;;;22.60;49.14;95037.47;5048672;28;20869;-57
2022/07/24 03:59:39;;;;;;;24.77;6.67;;;22.00;61.80;;;22.63;49.17;95039.72;5049572;28;20485;-60
2022/07/24 04:02:06;;;;;;;23.83;7.40;;;22.00;62.00;;;22.67;48.95;95043.66;5047978;28;20463;-56
2022/07/24 04:04:33;;;;;;;15.93;7.80;;;22.00;61.50;;;22.70;48.98;95040.53;5048860;28;20488;-57
2022/07/24 04:07:00;;;;;;;20.40;8.10;;;22.10;61.30;;;22.74;48.80;95044.44;5048244;28;20471;-60
2022/07/24 04:09:27;;;;;;;16.27;8.10;;;22.10;61.30;;;22.76;48.63;95042.38;5048439;28;20995;-57
2022/07/24 04:11:55;;;;;;;13.33;7.87;;;22.20;61.50;;;22.78;48.61;95034.94;5048434;28;20475;-59
2022/07/24 04:14:23;;;;;;;19.13;9.00;;;22.20;61.40;;;22.83;48.77;95037.78;5048755;28;20452;-61
2022/07/24 04:16:50;;;;;;;19.03;6.40;;;22.20;61.50;;;22.84;48.54;95039.44;5048209;28;20475;-58
2022/07/24 04:19:17;;;;;;;15.40;7.13;;;22.20;61.10;;;22.88;48.26;95040.69;5047458;28;20452;-58
2022/07/24 04:21:45;;;;;;;16.83;7.00;;;22.30;61.20;;;22.92;48.64;95047.25;5048512;28;20475;-58
2022/07/24 04:24:12;;;;;;;17.37;7.40;;;22.30;61.20;;;22.96;48.63;95046.81;5048221;28;21023;-60
2022/07/24 04:26:39;;;;;;;14.33;7.50;;;22.40;61.00;;;23.00;48.56;95048.06;5044635;28;20885;-58
2022/07/24 04:29:06;;;;;;;19.03;7.63;;;22.40;61.10;;;23.03;48.42;95042.25;5048314;28;20463;-57
2022/07/24 04:31:35;;;;;;;14.30;7.50;;;22.40;61.30;;;23.08;49.01;95050.47;5047392;28;20467;-61
2022/07/24 04:34:02;;;;;;;29.47;8.70;;;22.50;61.40;;;23.12;48.52;95050.94;5047743;28;20452;-57
2022/07/24 04:36:29;;;;;;;14.43;7.33;;;22.50;61.60;;;23.18;48.07;95060.81;5048049;28;20527;-60
2022/07/24 04:38:57;;;;;;;19.53;7.57;;;22.60;61.30;;;23.24;48.53;95049.22;5048024;28;20517;-60
2022/07/24 04:41:24;;;;;;;14.63;7.97;;;22.60;61.00;;;23.30;47.88;95052.88;5047722;28;20476;-60
2022/07/24 04:43:51;;;;;;;19.63;7.17;;;22.70;60.80;;;23.35;48.09;95047.72;5047516;28;20557;-56
2022/07/24 04:46:18;;;;;;;16.30;6.83;;;22.70;60.70;;;23.39;47.67;95046.22;5047605;28;20476;-59
2022/07/24 04:48:47;;;;;;;13.60;7.67;;;22.80;60.60;;;23.43;47.58;95045.59;5047832;28;20451;-59
2022/07/24 04:51:14;;;;;;;12.47;8.07;;;22.80;60.30;;;23.49;47.80;95051.97;5047544;28;20483;-61
2022/07/24 04:53:42;;;;;;;20.00;8.00;;;22.90;60.00;;;23.56;47.93;95058.13;5047140;28;20509;-57
2022/07/24 04:56:09;;;;;;;27.40;8.30;;;22.90;60.20;;;23.63;47.58;95050.84;5047658;28;20468;-59
2022/07/24 04:58:37;;;;;;;24.43;8.00;;;23.00;60.40;;;23.71;47.56;95049.75;5048107;28;20451;-57
2022/07/24 05:01:04;;;;;;;18.73;9.07;;;23.10;60.20;;;23.79;47.89;95052.16;5046599;28;20479;-58
2022/07/24 05:03:31;;;;;;;21.50;8.80;;;23.10;60.00;;;23.87;47.60;95053.78;5047024;28;20518;-58
2022/07/24 05:06:00;;;;;;;20.40;8.43;;;23.20;60.20;;;23.95;46.91;95056.22;5047803;28;20862;-57
2022/07/24 05:08:27;;;;;;;14.10;7.90;;;23.30;60.10;;;24.05;46.95;95061.09;5047255;28;20513;-58
2022/07/24 05:10:54;;;;;;;16.87;8.27;;;23.40;59.80;;;24.16;46.69;95067.63;5047533;28;20475;-58
2022/07/24 05:13:21;;;;;;;20.53;9.17;;;23.50;59.60;;;24.26;46.88;95070.66;5047633;28;20517;-60
2022/07/24 05:15:48;;;;;;;17.20;8.77;;;23.60;59.30;;;24.36;46.34;95061.25;5047346;28;20468;-57
2022/07/24 05:18:16;;;;;;;19.30;8.70;;;23.70;59.30;;;24.43;46.18;95062.00;5046394;28;20513;-58
2022/07/24 05:20:43;;;;;;;12.33;7.90;;;23.70;59.10;;;24.51;46.89;95059.84;5047510;28;20472;-57
2022/07/24 05:23:11;;;;;;;29.20;9.30;;;23.90;59.20;;;24.61;46.54;95059.38;5046898;28;21039;-57
2022/07/24 05:25:39;;;;;;;22.27;8.07;;;23.90;58.80;;;24.71;46.35;95061.56;5047132;28;20549;-60
2022/07/24 05:28:06;;;;;;;17.17;7.50;;;24.00;58.70;;;24.81;45.91;95058.34;5044963;28;20448;-61
2022/07/24 05:30:33;;;;;;;16.10;8.80;;;24.10;58.00;;;24.90;45.18;95057.00;5047335;28;20452;-58
2022/07/24 05:33:00;;;;;;;19.40;9.00;;;24.20;58.00;;;25.04;45.01;95060.34;5046244;28;20501;-60
2022/07/24 05:35:27;;;;;;;18.80;7.93;;;24.30;58.10;;;25.21;45.50;95063.25;5047433;28;20455;-61
2022/07/24 05:37:55;;;;;;;15.93;9.40;;;24.50;58.20;;;25.34;45.10;95057.69;5047095;28;20455;-60
2022/07/24 05:40:23;;;;;;;16.00;8.90;;;24.60;57.70;;;25.50;44.43;95061.66;5046894;28;20508;-61
2022/07/24 05:42:50;;;;;;;18.00;8.40;;;24.80;57.40;;;25.63;44.00;95059.81;5046951;28;20455;-61
2022/07/24 05:45:18;;;;;;;16.07;8.30;;;24.90;57.10;;;25.78;44.33;95060.22;5046193;28;20498;-61
2022/07/24 05:47:45;;;;;;;23.27;8.63;;;25.00;56.90;;;25.93;43.73;95060.59;5042807;28;20979;-65
2022/07/24 05:50:13;;;;;;;17.17;8.30;;;25.10;56.50;;;26.09;43.09;95052.91;5047064;28;20486;-63
2022/07/24 05:52:41;;;;;;;26.17;10.17;;;25.30;56.30;;;26.27;43.07;95049.28;5042179;28;21116;-60
2022/07/24 05:55:09;;;;;;;24.47;9.20;;;25.50;56.20;;;26.48;43.40;95048.69;5042868;28;20805;-60
2022/07/24 05:57:38;;;;;;;22.77;9.00;;;25.70;56.10;;;26.69;42.86;95051.88;5046295;28;20532;-59
2022/07/24 06:00:06;;;;;;;19.67;8.13;;;25.90;55.60;;;26.85;42.25;95055.75;5046915;28;20451;-60
2022/07/24 06:02:33;;;;;;;19.03;8.87;;;26.00;55.20;;;27.01;42.32;95051.47;5045614;28;20479;-58
2022/07/24 06:05:01;;;;;;;23.57;9.97;;;26.20;55.10;;;27.21;42.25;95058.38;5045860;28;20887;-58
2022/07/24 06:07:28;;;;;;;18.10;9.40;;;26.40;55.20;;;27.42;42.08;95052.34;5046162;28;20897;-58
2022/07/24 06:09:55;;;;;;;22.63;9.83;;;26.60;55.00;;;27.67;41.54;95059.25;5045946;28;20455;-60
2022/07/24 06:12:22;;;;;;;20.40;9.10;;;26.80;54.40;;;27.90;41.48;95061.84;5044591;28;20467;-57
2022/07/24 06:14:51;;;;;;;19.03;8.90;;;27.00;54.00;;;28.13;40.93;95057.38;5045744;28;20731;-59
2022/07/24 06:17:18;;;;;;;16.90;8.40;;;27.20;53.80;;;28.35;40.69;95051.22;5044715;28;20582;-62
2022/07/24 06:19:45;;;;;;;26.10;9.07;;;27.50;53.60;;;28.57;40.19;95043.97;5046027;28;20459;-62
2022/07/24 06:22:12;;;;;;;25.67;9.30;;;27.70;53.10;;;28.81;39.99;95049.19;5045200;28;20483;-58
2022/07/24 06:24:40;;;;;;;12.87;9.17;;;27.90;52.90;;;29.06;40.13;95046.00;5045411;28;20548;-58
2022/07/24 06:27:07;;;;;;;20.63;8.77;;;28.20;52.50;;;29.29;39.50;95049.56;5046343;28;20962;-57
2022/07/24 06:29:34;;;;;;;21.90;9.10;;;28.40;51.70;;;29.51;39.09;95052.22;5042329;28;20917;-58
2022/07/24 06:32:02;;;;;;;15.10;10.00;;;28.60;51.10;;;29.74;38.76;95047.59;5044351;28;21118;-59
2022/07/24 06:34:30;;;;;;;12.90;8.57;;;28.80;50.80;;;29.95;37.65;95041.31;5045464;28;20807;-58
2022/07/24 06:36:57;;;;;;;26.73;9.43;;;29.00;50.20;;;30.16;37.64;95041.47;5045700;28;20540;-58
2022/07/24 06:39:24;;;;;;;25.43;8.57;;;29.20;50.10;;;30.36;37.17;95047.06;5045356;28;20501;-62
2022/07/24 06:41:51;;;;;;;17.20;8.53;;;29.40;49.90;;;30.55;37.33;95046.69;5042688;28;20472;-61
2022/07/24 06:44:19;;;;;;;23.17;8.43;;;29.60;49.40;;;30.71;36.75;95042.19;5044040;28;20443;-58
2022/07/24 06:46:46;;;;;;;20.30;8.60;;;29.80;49.40;;;30.91;36.39;95038.75;5043731;28;20467;-59
2022/07/24 06:49:14;;;;;;;26.73;10.50;;;30.00;49.10;;;31.10;36.68;95025.56;5045017;28;20501;-62
2022/07/24 06:51:41;;;;;;;19.73;9.00;;;30.20;48.80;;;31.28;35.82;95025.06;5044159;28;21030;-58
2022/07/24 06:54:09;;;;;;;31.03;9.20;;;30.30;48.30;;;31.46;35.95;95017.50;5045366;28;20459;-59
2022/07/24 06:56:36;;;;;;;25.93;8.80;;;30.50;48.00;;;31.62;35.46;95012.94;5045674;28;20240;-59
2022/07/24 06:59:03;;;;;;;19.73;8.90;;;30.70;47.20;;;31.78;35.64;95019.25;5045075;28;20661;-61
2022/07/24 07:01:31;;;;;;;21.90;10.57;;;30.90;47.30;;;31.95;35.62;95024.44;5044381;28;20693;-61
2022/07/24 07:03:58;;;;;;;25.03;11.03;;;31.00;47.20;;;32.13;35.32;95026.63;5042345;28;20254;-59
2022/07/24 07:06:26;;;;;;;28.33;9.27;;;31.20;47.20;;;32.34;35.16;95029.34;5044417;28;20240;-62
2022/07/24 07:08:53;;;;;;;22.87;9.57;;;31.40;47.00;;;32.53;34.93;95022.25;5045432;28;20200;-62
2022/07/24 07:11:21;;;;;;;22.60;8.77;;;31.60;46.50;;;32.73;34.51;95020.59;5044817;28;20278;-58
2022/07/24 07:13:48;;;;;;;14.80;9.00;;;31.80;46.30;;;32.94;34.18;95020.50;5044816;28;20633;-58
2022/07/24 07:16:15;;;;;;;20.00;9.13;;;31.90;46.20;;;33.14;33.99;95019.63;5040940;28;20481;-59
2022/07/24 07:18:42;;;;;;;12.55;9.38;;;32.10;45.80;;;33.30;33.89;95014.97;5044576;28;20246;-62
2022/07/24 07:21:09;;;;;;;18.73;9.00;;;32.30;45.40;;;33.49;33.54;95026.03;5044741;28;20224;-61
2022/07/24 07:23:38;;;;;;;18.58;9.25;;;32.50;44.80;;;33.65;33.31;95022.13;5045808;28;20289;-59
2022/07/24 07:26:06;;;;;;;18.60;9.65;;;32.70;44.70;;;33.86;33.39;95024.75;5048603;28;20240;-60
2022/07/24 07:28:33;;;;;;;15.02;9.00;;;32.90;44.70;;;34.05;33.38;95020.25;5048939;28;20205;-59
2022/07/24 07:31:00;;;;;;;15.32;9.18;;;33.10;44.40;;;34.20;32.58;95024.75;5044458;28;20728;-59
2022/07/24 07:33:27;;;;;;;18.10;9.25;;;33.30;44.10;;;34.34;32.94;95018.66;5048926;28;20258;-58
2022/07/24 07:35:55;;;;;;;15.45;9.55;;;33.40;44.00;;;34.47;32.00;95017.97;5048802;28;20702;-61
2022/07/24 07:38:22;;;;;;;12.65;9.27;;;33.50;43.50;;;34.62;32.36;95017.03;5048283;28;20200;-59
2022/07/24 07:40:51;;;;;;;18.83;8.45;;;33.70;43.00;;;34.79;31.47;95013.88;5048106;28;20466;-59
2022/07/24 07:43:18;;;;;;;23.33;8.45;;;33.80;42.60;;;34.93;31.64;95008.53;5048317;28;20572;-59
2022/07/24 07:45:45;;;;;;;16.83;9.82;;;34.00;42.60;;;35.08;30.83;95007.53;5046961;28;20244;-63
2022/07/24 07:48:12;;;;;;;22.15;9.77;;;34.20;42.00;;;35.20;30.58;95007.94;5049108;28;20654;-57
2022/07/24 07:50:39;;;;;;;17.63;8.18;;;34.30;42.00;;;35.29;30.88;95022.63;5048342;28;20298;-58
2022/07/24 07:53:08;;;;;;;24.83;9.70;;;34.40;41.30;;;35.40;30.33;95014.25;5049223;28;20205;-59
2022/07/24 07:55:35;;;;;;;17.77;9.27;;;34.40;41.30;;;35.54;30.80;95013.25;5048925;28;20205;-61
2022/07/24 07:58:05;;;;;;;15.90;8.93;;;34.60;41.30;;;35.75;30.20;95012.94;5048958;28;20266;-59
2022/07/24 08:00:32;;;;;;;14.18;9.00;;;34.80;41.10;;;35.98;30.28;95003.03;5047294;28;20223;-61
2022/07/24 08:02:59;;;;;;;17.58;8.88;;;34.90;40.80;;;36.18;30.25;95009.31;5048159;28;20256;-63
2022/07/24 08:05:27;;;;;;;19.23;8.30;;;35.10;40.30;;;36.21;29.46;95019.69;5048766;28;20661;-58
2022/07/24 08:07:54;;;;;;;22.80;9.70;;;35.30;39.90;;;36.16;29.56;95017.84;5049187;28;20251;-57
2022/07/24 08:10:21;;;;;;;25.85;9.45;;;35.30;39.60;;;36.14;29.50;95016.50;5048731;28;20205;-61
2022/07/24 08:12:48;;;;;;;17.23;8.77;;;35.30;39.70;;;36.20;29.38;95016.09;5048762;28;20213;-61
2022/07/24 08:15:17;;;;;;;19.48;10.88;;;35.30;39.60;;;36.38;28.63;95008.19;5048088;28;20255;-58
2022/07/24 08:17:44;;;;;;;22.88;8.80;;;35.40;39.50;;;36.62;29.22;95008.00;5044618;28;20251;-62
2022/07/24 08:20:12;;;;;;;13.60;8.27;;;35.60;39.50;;;36.85;29.05;95008.19;5048356;28;20201;-62
2022/07/24 08:22:39;;;;;;;18.73;10.18;;;35.80;39.30;;;36.94;28.47;95014.59;5049419;28;20224;-58
2022/07/24 08:25:07;;;;;;;15.40;9.35;;;35.90;38.90;;;36.93;28.60;95008.25;5048414;28;20236;-62
2022/07/24 08:27:37;;;;;;;22.02;10.25;;;36.00;38.80;;;36.91;28.62;95017.94;5048007;28;20221;-62
2022/07/24 08:30:06;;;;;;;17.00;9.48;;;36.00;38.80;;;36.89;28.99;95011.91;5047936;28;20228;-61
2022/07/24 08:32:35;;;;;;;16.48;10.00;;;36.00;38.80;;;36.91;28.36;95016.00;5046938;28;20227;-58
2022/07/24 08:35:02;;;;;;;29.65;9.90;;;36.00;38.60;;;36.92;28.84;95011.31;5047864;28;20231;-61
2022/07/24 08:37:29;;;;;;;18.00;10.15;;;36.10;38.70;;;36.97;28.16;95009.28;5047814;28;20275;-59
2022/07/24 08:39:56;;;;;;;31.00;12.63;;;36.10;38.30;;;37.06;28.21;95011.31;5048136;28;20209;-59
2022/07/24 08:42:24;;;;;;;32.35;14.30;;;36.20;38.30;;;37.08;28.10;95012.66;5047938;28;20221;-64
2022/07/24 08:44:51;;;;;;;29.20;11.85;;;36.20;38.60;;;37.06;29.13;95006.66;5046659;28;20193;-58
2022/07/24 08:47:19;;;;;;;36.22;11.52;;;36.20;39.00;;;36.92;30.28;95000.34;5047852;28;20584;-58
2022/07/24 08:49:48;;;;;;;16.83;8.95;;;36.10;40.20;;;36.65;30.87;95009.34;5047372;28;20216;-57
2022/07/24 08:52:15;;;;;;;22.38;9.35;;;35.90;41.30;;;36.30;30.82;94998.72;5047661;28;20228;-58
2022/07/24 08:54:42;;;;;;;34.13;12.93;;;35.70;41.10;;;35.97;31.89;95004.16;5047976;28;20208;-58
2022/07/24 08:57:09;;;;;;;36.65;12.73;;;35.30;42.70;;;35.69;32.24;95000.44;5049257;28;20220;-66
2022/07/24 08:59:36;;;;;;;17.85;10.23;;;35.00;43.80;;;35.45;33.99;94998.59;5043891;28;20255;-65
2022/07/24 09:02:04;;;;;;;20.65;11.95;;;34.80;45.10;;;35.23;33.37;95001.88;5045403;28;20286;-58
2022/07/24 09:04:38;;;;;;;42.13;13.98;;;34.60;44.20;;;35.10;34.54;94999.84;5044890;28;20247;-58
2022/07/24 09:07:08;;;;;;;19.90;9.23;;;34.40;46.00;;;35.06;33.75;94998.81;5047110;28;20239;-65
2022/07/24 09:09:36;;;;;;;23.10;11.30;;;34.30;44.90;;;35.06;34.63;94990.59;5048679;28;20629;-66
2022/07/24 09:12:06;;;;;;;18.77;10.30;;;34.30;45.50;;;35.14;34.41;94995.44;5047867;28;20290;-63
2022/07/24 09:14:33;;;;;;;20.33;10.27;;;34.30;46.10;;;35.27;34.28;95000.19;5047715;28;20260;-58
2022/07/24 09:17:06;;;;;;;28.38;10.20;;;34.40;45.30;;;35.35;33.07;94996.84;5047126;28;20224;-63
2022/07/24 09:19:48;;;;;;;21.92;9.82;;;34.50;44.00;;;35.43;32.72;94994.53;5046806;28;20735;-64
2022/07/24 09:22:27;;;;;;;25.30;9.90;;;34.60;43.40;;;35.53;33.40;94988.94;5045887;28;20302;-57
2022/07/24 09:25:17;;;;;;;23.98;9.30;;;34.70;44.30;;;35.66;34.15;94990.91;5045223;28;20192;-65
2022/07/24 09:27:49;;;;;;;22.88;9.57;;;34.80;44.80;;;35.76;33.33;95000.94;5040637;28;20282;-64
2022/07/24 09:30:29;;;;;;;20.15;9.27;;;34.90;44.30;;;35.88;32.24;94992.25;5047393;28;20234;-63
2022/07/24 09:32:58;;;;;;;22.55;9.35;;;35.00;44.00;;;35.98;32.51;94999.50;5045938;28;20269;-64
2022/07/24 09:35:31;;;;;;;20.27;8.90;;;35.10;43.70;;;36.07;32.33;94984.81;5046854;28;20720;-64
2022/07/24 09:38:00;;;;;;;15.48;8.30;;;35.20;43.30;;;36.17;31.78;94983.03;5047159;28;20197;-56
2022/07/24 09:40:31;;;;;;;19.20;8.10;;;35.30;42.40;;;36.28;31.44;94980.97;5047480;28;20262;-57
2022/07/24 09:43:19;;;;;;;13.52;7.78;;;35.40;42.70;;;36.42;30.19;94990.84;5046715;28;20288;-64
2022/07/24 09:45:56;;;;;;;27.45;7.38;;;35.50;41.70;;;36.56;30.99;94976.34;5045719;28;20237;-63
2022/07/24 09:48:25;;;;;;;9.65;7.00;;;35.60;41.60;;;36.70;30.83;94977.19;5044358;28;20205;-66
2022/07/24 09:50:52;;;;;;;34.38;8.52;;;35.80;41.00;;;36.90;29.95;94977.91;5047189;28;20730;-61
2022/07/24 09:53:22;;;;;;;16.75;7.85;;;36.00;40.80;;;37.06;29.96;94973.75;5048071;28;20570;-59
2022/07/24 09:55:59;;;;;;;10.15;7.55;;;36.20;40.30;;;37.23;29.64;94975.91;5046413;28;20302;-67
2022/07/24 09:58:27;;;;;;;9.25;6.75;;;36.30;39.80;;;37.39;29.03;94967.34;5046726;28;20203;-57
2022/07/24 10:00:55;;;;;;;14.95;7.70;;;36.40;39.40;;;37.52;28.48;94969.22;5047246;28;20294;-68
2022/07/24 10:03:25;;;;;;;10.52;7.65;;;36.60;38.40;;;37.60;28.46;94971.25;5045730;28;20205;-57
2022/07/24 10:05:55;;;;;;;13.75;6.97;;;36.70;38.10;;;37.63;27.98;94967.88;5043356;28;20233;-68
2022/07/24 10:08:24;;;;;;;14.95;8.45;;;36.80;37.70;;;37.71;27.94;94966.34;5047026;28;20201;-69
2022/07/24 10:10:51;;;;;;;15.10;7.47;;;36.80;37.70;;;37.85;27.92;94961.63;5046940;28;20576;-59
2022/07/24 10:13:19;;;;;;;16.52;7.57;;;36.90;37.80;;;37.99;27.78;94960.75;5046933;28;20274;-67
2022/07/24 10:15:54;;;;;;;13.75;7.40;;;37.10;37.10;;;38.13;26.77;94961.47;5046486;28;20216;-67